N124MC KILG-KPNE
Flight info
| Callsign | N124MC |
|---|---|
| Flight time | 0h 17m |
| Altitude | 1500 |
| Route | VFR |
| Aircraft | PA44/L-VGD/C |
Departure
| Time | 2026-05-07 14:15 |
|---|---|
| Airport | Wilmington Airport (KILG) |
Arrival
| Time | 2026-05-07 14:32 |
|---|---|
| Airport | Northeast Philadelphia Airport (KPNE) |
| Time | Latitude | Longitude | Altitude | Speed | Heading |
|---|---|---|---|---|---|
| 2026-05-07 14:10 | 39.67430 | -75.61199 | 78 ft | 0 kts | 308° |
| 2026-05-07 14:12 | 39.67431 | -75.61205 | 78 ft | 2 kts | 247° |
| 2026-05-07 14:13 | 39.67402 | -75.61159 | 78 ft | 13 kts | 120° |
| 2026-05-07 14:13 | 39.67379 | -75.61051 | 73 ft | 15 kts | 42° |
| 2026-05-07 14:13 | 39.67394 | -75.60942 | 75 ft | 19 kts | 129° |
| 2026-05-07 14:13 | 39.67281 | -75.60771 | 77 ft | 28 kts | 131° |
| 2026-05-07 14:14 | 39.67145 | -75.60566 | 75 ft | 31 kts | 131° |
| 2026-05-07 14:14 | 39.66991 | -75.60513 | 75 ft | 16 kts | 164° |
| 2026-05-07 14:14 | 39.66952 | -75.60397 | 71 ft | 16 kts | 50° |
| 2026-05-07 14:14 | 39.67112 | -75.60362 | 74 ft | 49 kts | 5° |
| 2026-05-07 14:15 | 39.67592 | -75.60274 | 276 ft | 79 kts | 7° |
| 2026-05-07 14:15 | 39.68191 | -75.60089 | 653 ft | 97 kts | 19° |
| 2026-05-07 14:15 | 39.68687 | -75.59353 | 902 ft | 118 kts | 54° |
| 2026-05-07 14:15 | 39.69173 | -75.58465 | 1175 ft | 122 kts | 49° |
| 2026-05-07 14:16 | 39.69694 | -75.57547 | 1316 ft | 130 kts | 49° |
| 2026-05-07 14:16 | 39.70167 | -75.56712 | 1435 ft | 134 kts | 50° |
| 2026-05-07 14:16 | 39.70738 | -75.55733 | 1511 ft | 140 kts | 49° |
| 2026-05-07 14:16 | 39.71325 | -75.54721 | 1505 ft | 141 kts | 49° |
| 2026-05-07 14:17 | 39.71924 | -75.53693 | 1504 ft | 144 kts | 49° |
| 2026-05-07 14:17 | 39.72533 | -75.52657 | 1507 ft | 145 kts | 50° |
| 2026-05-07 14:17 | 39.73202 | -75.51660 | 1510 ft | 148 kts | 45° |
| 2026-05-07 14:17 | 39.73883 | -75.50662 | 1511 ft | 148 kts | 45° |
| 2026-05-07 14:18 | 39.74578 | -75.49654 | 1499 ft | 151 kts | 45° |
| 2026-05-07 14:18 | 39.75271 | -75.48636 | 1500 ft | 150 kts | 45° |
| 2026-05-07 14:18 | 39.75962 | -75.47617 | 1502 ft | 151 kts | 45° |
| 2026-05-07 14:18 | 39.76657 | -75.46598 | 1493 ft | 149 kts | 45° |
| 2026-05-07 14:19 | 39.77344 | -75.45585 | 1501 ft | 149 kts | 45° |
| 2026-05-07 14:19 | 39.78006 | -75.44549 | 1495 ft | 149 kts | 49° |
| 2026-05-07 14:19 | 39.78626 | -75.43473 | 1499 ft | 150 kts | 49° |
| 2026-05-07 14:19 | 39.79245 | -75.42382 | 1503 ft | 150 kts | 50° |
| 2026-05-07 14:20 | 39.79879 | -75.41302 | 1495 ft | 150 kts | 49° |
| 2026-05-07 14:20 | 39.80499 | -75.40232 | 1493 ft | 147 kts | 50° |
| 2026-05-07 14:20 | 39.80915 | -75.39019 | 1490 ft | 148 kts | 68° |
| 2026-05-07 14:20 | 39.81229 | -75.37750 | 1488 ft | 146 kts | 67° |
| 2026-05-07 14:21 | 39.81545 | -75.36506 | 1499 ft | 145 kts | 67° |
| 2026-05-07 14:21 | 39.81866 | -75.35256 | 1495 ft | 147 kts | 67° |
| 2026-05-07 14:21 | 39.82186 | -75.33993 | 1498 ft | 147 kts | 68° |
| 2026-05-07 14:21 | 39.82506 | -75.32736 | 1500 ft | 147 kts | 68° |
| 2026-05-07 14:22 | 39.82832 | -75.31469 | 1496 ft | 148 kts | 66° |
| 2026-05-07 14:22 | 39.83181 | -75.30204 | 1509 ft | 150 kts | 65° |
| 2026-05-07 14:22 | 39.83576 | -75.28942 | 1508 ft | 151 kts | 64° |
| 2026-05-07 14:22 | 39.83966 | -75.27666 | 1511 ft | 153 kts | 64° |
| 2026-05-07 14:23 | 39.84369 | -75.26374 | 1506 ft | 154 kts | 64° |
| 2026-05-07 14:23 | 39.84770 | -75.25077 | 1504 ft | 154 kts | 64° |
| 2026-05-07 14:23 | 39.85168 | -75.23787 | 1503 ft | 154 kts | 64° |
| 2026-05-07 14:23 | 39.85560 | -75.22504 | 1497 ft | 150 kts | 64° |
| 2026-05-07 14:24 | 39.85942 | -75.21263 | 1495 ft | 149 kts | 64° |
| 2026-05-07 14:24 | 39.86327 | -75.20001 | 1493 ft | 147 kts | 64° |
| 2026-05-07 14:24 | 39.86585 | -75.19189 | 1497 ft | 146 kts | 61° |
| 2026-05-07 14:24 | 39.87054 | -75.18023 | 1496 ft | 144 kts | 53° |
| 2026-05-07 14:25 | 39.88100 | -75.17152 | 1503 ft | 136 kts | 18° |
| 2026-05-07 14:25 | 39.88994 | -75.16709 | 1513 ft | 140 kts | 18° |
| 2026-05-07 14:25 | 39.89902 | -75.16184 | 1509 ft | 145 kts | 24° |
| 2026-05-07 14:25 | 39.90520 | -75.15802 | 1510 ft | 147 kts | 22° |
| 2026-05-07 14:26 | 39.91446 | -75.15223 | 1502 ft | 148 kts | 23° |
| 2026-05-07 14:26 | 39.92369 | -75.14664 | 1505 ft | 146 kts | 22° |
| 2026-05-07 14:26 | 39.93285 | -75.14106 | 1495 ft | 143 kts | 24° |
| 2026-05-07 14:26 | 39.94183 | -75.13553 | 1495 ft | 143 kts | 23° |
| 2026-05-07 14:27 | 39.95078 | -75.13000 | 1486 ft | 142 kts | 23° |
| 2026-05-07 14:27 | 39.95967 | -75.12443 | 1494 ft | 141 kts | 26° |
| 2026-05-07 14:27 | 39.96754 | -75.11681 | 1493 ft | 141 kts | 36° |
| 2026-05-07 14:27 | 39.97535 | -75.10900 | 1408 ft | 143 kts | 33° |
| 2026-05-07 14:28 | 39.98357 | -75.10134 | 1290 ft | 149 kts | 32° |
| 2026-05-07 14:28 | 39.99211 | -75.09347 | 1194 ft | 150 kts | 32° |
| 2026-05-07 14:28 | 40.00053 | -75.08567 | 1201 ft | 147 kts | 32° |
| 2026-05-07 14:28 | 40.00882 | -75.07805 | 1191 ft | 144 kts | 32° |
| 2026-05-07 14:29 | 40.01647 | -75.07095 | 1194 ft | 129 kts | 33° |
| 2026-05-07 14:29 | 40.02364 | -75.06438 | 1193 ft | 124 kts | 31° |
| 2026-05-07 14:29 | 40.03012 | -75.05721 | 1194 ft | 122 kts | 45° |
| 2026-05-07 14:29 | 40.03502 | -75.04845 | 1193 ft | 110 kts | 47° |
| 2026-05-07 14:30 | 40.03894 | -75.04134 | 1192 ft | 87 kts | 47° |
| 2026-05-07 14:30 | 40.04209 | -75.03480 | 1181 ft | 83 kts | 53° |
| 2026-05-07 14:30 | 40.04532 | -75.02792 | 1205 ft | 93 kts | 53° |
| 2026-05-07 14:30 | 40.04880 | -75.02072 | 1143 ft | 93 kts | 51° |
| 2026-05-07 14:31 | 40.05228 | -75.01409 | 1074 ft | 84 kts | 46° |
| 2026-05-07 14:31 | 40.05596 | -75.00784 | 932 ft | 87 kts | 44° |
| 2026-05-07 14:31 | 40.05991 | -75.00205 | 770 ft | 85 kts | 35° |
| 2026-05-07 14:31 | 40.06482 | -74.99946 | 555 ft | 74 kts | 1° |
| 2026-05-07 14:32 | 40.06985 | -75.00085 | 294 ft | 73 kts | 331° |
| 2026-05-07 14:32 | 40.07383 | -75.00441 | 126 ft | 66 kts | 317° |
| 2026-05-07 14:32 | 40.07648 | -75.00726 | 114 ft | 30 kts | 319° |
| 2026-05-07 14:32 | 40.07644 | -75.00841 | 115 ft | 19 kts | 234° |
| 2026-05-07 14:33 | 40.07557 | -75.00903 | 111 ft | 7 kts | 284° |
| 2026-05-07 14:33 | 40.07558 | -75.00906 | 111 ft | 0 kts | 309° |